Time;durP1;ratioP1;P1;durP2;ratioP2;P2;SDS_P1;SDS_P2;PMS_P1;PMS_P2;Temp;Humidity;BMP_temperature;BMP_pressure;BME280_temperature;BME280_humidity;BME280_pressure;Samples;Min_cycle;Max_cycle;Signal;HPM_P1;HPM_P2
2021/07/07 00:01:15;;;;;;;8.88;4.00;;;;;;;22.86;64.00;98125.72;5019326;28;20044;-62
2021/07/07 00:03:41;;;;;;;6.70;3.70;;;;;;;23.07;63.74;98164.03;5034989;28;20029;-62
2021/07/07 00:06:06;;;;;;;6.38;3.55;;;;;;;22.78;64.09;98142.78;5021762;28;20034;-62
2021/07/07 00:08:32;;;;;;;6.40;3.90;;;;;;;22.89;63.92;98138.47;5021146;28;20040;-62
2021/07/07 00:10:58;;;;;;;6.25;3.78;;;;;;;23.14;63.81;98170.00;5016683;28;20029;-62
2021/07/07 00:13:23;;;;;;;6.10;3.67;;;;;;;23.08;64.06;98169.09;5017075;28;20518;-63
2021/07/07 00:15:49;;;;;;;6.38;3.70;;;;;;;23.06;64.27;98167.75;5037493;28;20038;-62
2021/07/07 00:18:14;;;;;;;6.95;4.53;;;;;;;22.77;65.13;98134.03;5033777;28;20025;-62
2021/07/07 00:20:44;;;;;;;5.70;3.47;;;;;;;23.08;65.14;98169.09;5017691;28;20041;-62
2021/07/07 00:23:10;;;;;;;5.60;3.42;;;;;;;22.94;65.84;98162.44;5036857;28;20017;-62
2021/07/07 00:25:36;;;;;;;8.27;4.00;;;;;;;22.91;65.92;98155.78;5036907;28;20064;-62
2021/07/07 00:28:01;;;;;;;6.68;3.70;;;;;;;22.94;66.07;98167.75;5017625;28;20092;-62
2021/07/07 00:30:27;;;;;;;6.50;3.50;;;;;;;22.89;66.02;98162.34;5020826;28;20029;-62
2021/07/07 00:32:54;;;;;;;6.68;3.70;;;;;;;22.74;66.72;98163.63;5040385;28;20025;-61
2021/07/07 00:35:19;;;;;;;7.20;3.53;;;;;;;22.74;66.55;98160.19;5017566;28;20884;-62
2021/07/07 00:37:44;;;;;;;8.73;3.50;;;;;;;22.84;66.58;98161.19;5040272;28;20031;-61
2021/07/07 00:40:11;;;;;;;5.95;3.80;;;;;;;22.46;66.88;98114.88;5023016;28;20033;-61
2021/07/07 00:42:36;;;;;;;6.65;3.72;;;;;;;22.55;67.33;98162.19;5021262;28;20060;-61
2021/07/07 00:45:02;;;;;;;6.13;3.60;;;;;;;22.51;67.68;98169.00;5025284;28;20026;-62
2021/07/07 00:47:28;;;;;;;5.68;3.60;;;;;;;22.57;67.55;98160.13;5018762;28;20452;-62
2021/07/07 00:49:53;;;;;;;7.15;3.60;;;;;;;22.70;67.21;98167.00;5035960;28;20021;-62
2021/07/07 00:52:19;;;;;;;6.13;3.85;;;;;;;22.62;67.27;98171.63;5018963;28;21095;-62
2021/07/07 00:54:45;;;;;;;5.55;3.42;;;;;;;22.59;66.96;98164.13;5037908;28;20025;-61
2021/07/07 00:57:12;;;;;;;8.07;3.97;;;;;;;22.59;67.85;98168.63;5015461;28;20510;-62
2021/07/07 00:59:38;;;;;;;7.63;4.00;;;;;;;22.69;67.27;98166.22;5020977;28;20109;-62
2021/07/07 01:02:03;;;;;;;8.32;3.55;;;;;;;22.57;67.27;98158.25;5017594;28;20092;-62
2021/07/07 01:04:29;;;;;;;6.10;3.63;;;;;;;22.36;68.04;98172.94;5021131;28;20075;-62
2021/07/07 01:06:54;;;;;;;6.25;3.92;;;;;;;22.10;68.82;98168.88;5022132;28;20030;-62
2021/07/07 01:09:20;;;;;;;7.22;3.90;;;;;;;22.27;68.51;98169.81;5023125;28;20036;-63
2021/07/07 01:11:45;;;;;;;8.00;3.90;;;;;;;22.43;68.29;98170.97;5023416;28;20117;-62
2021/07/07 01:14:11;;;;;;;5.63;3.80;;;;;;;22.26;68.28;98146.22;5037025;28;20388;-63
2021/07/07 01:16:41;;;;;;;6.30;3.92;;;;;;;22.50;68.01;98175.34;5021541;28;20018;-62
2021/07/07 01:19:06;;;;;;;7.05;3.67;;;;;;;22.33;67.66;98157.50;5022703;28;20029;-62
2021/07/07 01:21:34;;;;;;;6.03;3.72;;;;;;;22.54;67.29;98173.81;5015679;28;20076;-62
2021/07/07 01:23:59;;;;;;;6.60;3.50;;;;;;;22.34;68.02;98171.53;5015662;28;20057;-62
2021/07/07 01:26:25;;;;;;;6.68;3.55;;;;;;;22.30;68.45;98183.63;5035811;28;20203;-63
2021/07/07 01:28:50;;;;;;;7.65;4.07;;;;;;;22.21;68.92;98180.50;5034060;28;20026;-62
2021/07/07 01:31:16;;;;;;;6.15;3.25;;;;;;;22.04;69.43;98167.94;5011861;28;20068;-62
2021/07/07 01:33:41;;;;;;;7.25;4.13;;;;;;;22.01;69.99;98173.72;5019686;28;20052;-62
2021/07/07 01:36:07;;;;;;;6.25;3.90;;;;;;;22.00;70.51;98182.69;5016066;28;20068;-62
2021/07/07 01:38:32;;;;;;;6.97;3.70;;;;;;;21.74;71.74;98164.56;5015983;28;20044;-62
2021/07/07 01:40:58;;;;;;;9.73;4.18;;;;;;;21.77;71.95;98169.41;5022384;28;20520;-63
2021/07/07 01:43:25;;;;;;;6.30;4.00;;;;;;;21.99;71.11;98167.03;5010452;28;20576;-62
2021/07/07 01:45:50;;;;;;;6.05;4.05;;;;;;;22.01;70.43;98157.84;5016505;28;20520;-62
2021/07/07 01:48:16;;;;;;;6.50;4.10;;;;;;;22.08;70.59;98160.34;5016723;28;20034;-62
2021/07/07 01:50:41;;;;;;;6.50;4.05;;;;;;;21.96;70.51;98119.84;5035354;28;20079;-62
2021/07/07 01:53:06;;;;;;;6.82;3.97;;;;;;;22.34;70.06;98153.00;5026771;28;20125;-62
2021/07/07 01:55:32;;;;;;;6.40;3.80;;;;;;;22.36;70.10;98151.75;5022213;28;20120;-62
2021/07/07 01:57:57;;;;;;;6.57;4.05;;;;;;;22.38;70.10;98151.50;5014570;28;20091;-62
2021/07/07 02:00:32;;;;;;;8.88;4.43;;;;;;;22.29;70.48;98158.19;5034386;28;20440;-62
2021/07/07 02:02:58;;;;;;;7.82;4.15;;;;;;;22.31;70.31;98164.88;5018981;28;20045;-63
2021/07/07 02:05:28;;;;;;;8.07;3.97;;;;;;;22.32;70.19;98147.13;5002453;28;20118;-62
2021/07/07 02:07:53;;;;;;;6.25;4.07;;;;;;;22.32;69.89;98147.94;5015345;28;20481;-63
2021/07/07 02:10:19;;;;;;;7.00;4.38;;;;;;;22.30;69.88;98152.66;5032119;28;20029;-62
2021/07/07 02:12:45;;;;;;;7.88;4.40;;;;;;;22.15;70.06;98142.50;5030690;28;20103;-61
2021/07/07 02:15:14;;;;;;;5.90;4.00;;;;;;;22.13;70.44;98157.81;5021023;28;20017;-62
2021/07/07 02:17:40;;;;;;;6.45;4.13;;;;;;;21.91;70.25;98130.31;5019787;28;20049;-62
2021/07/07 02:20:08;;;;;;;7.57;4.00;;;;;;;22.13;71.34;98163.13;5033278;28;20034;-62
2021/07/07 02:22:33;;;;;;;8.02;4.25;;;;;;;21.96;70.98;98125.94;5021000;28;20044;-62
2021/07/07 02:24:59;;;;;;;7.40;4.00;;;;;;;22.24;70.96;98153.56;5018809;28;20021;-62
2021/07/07 02:27:24;;;;;;;6.05;4.07;;;;;;;22.38;70.71;98162.09;5020355;28;20029;-62
2021/07/07 02:29:49;;;;;;;6.00;4.18;;;;;;;22.34;70.58;98156.47;5021410;28;20083;-62
2021/07/07 02:32:15;;;;;;;6.13;4.13;;;;;;;22.15;70.68;98123.19;5019712;28;20021;-61
2021/07/07 02:34:40;;;;;;;6.38;4.25;;;;;;;22.27;71.13;98153.13;5021087;28;20048;-62
2021/07/07 02:37:05;;;;;;;7.47;4.15;;;;;;;22.29;70.95;98153.72;5029788;28;20140;-62
2021/07/07 02:39:31;;;;;;;7.78;4.30;;;;;;;22.29;71.04;98147.59;5015780;28;20033;-62
2021/07/07 02:41:56;;;;;;;6.97;4.07;;;;;;;22.30;71.30;98150.00;5017913;28;20025;-62
2021/07/07 02:44:21;;;;;;;6.80;4.30;;;;;;;22.25;71.25;98149.88;5035170;28;20899;-62
2021/07/07 02:46:47;;;;;;;6.20;4.03;;;;;;;22.27;71.29;98140.69;5013792;28;20032;-62
2021/07/07 02:49:12;;;;;;;7.00;4.53;;;;;;;22.32;70.78;98147.94;5018879;28;20076;-63
2021/07/07 02:51:37;;;;;;;6.07;3.65;;;;;;;22.15;71.04;98147.81;5020903;28;20025;-63
2021/07/07 02:54:04;;;;;;;7.30;4.07;;;;;;;22.14;71.16;98148.84;5019060;28;20025;-62
2021/07/07 02:56:29;;;;;;;5.45;3.67;;;;;;;22.23;70.51;98151.94;5015664;28;20120;-62
2021/07/07 02:58:55;;;;;;;5.57;3.97;;;;;;;22.11;70.99;98151.16;5014681;28;20112;-63
2021/07/07 03:01:21;;;;;;;6.07;4.32;;;;;;;22.14;70.52;98151.50;5020682;28;20087;-62
2021/07/07 03:03:47;;;;;;;6.65;4.00;;;;;;;21.99;71.36;98145.84;5029732;28;20107;-63
2021/07/07 03:06:12;;;;;;;7.53;4.20;;;;;;;22.05;71.34;98150.22;5017598;28;20128;-62
2021/07/07 03:08:42;;;;;;;10.20;4.43;;;;;;;21.90;71.52;98155.97;5020765;28;20484;-62
2021/07/07 03:11:08;;;;;;;5.93;4.07;;;;;;;21.78;71.92;98169.19;5024333;28;20199;-63
2021/07/07 03:13:33;;;;;;;5.88;4.00;;;;;;;21.68;72.42;98172.41;5033495;28;20628;-63
2021/07/07 03:15:58;;;;;;;5.95;4.03;;;;;;;21.77;72.18;98177.34;5021208;28;20083;-62
2021/07/07 03:18:24;;;;;;;6.85;4.00;;;;;;;21.87;71.53;98180.25;5018530;28;20029;-63
2021/07/07 03:20:52;;;;;;;8.13;4.47;;;;;;;21.75;71.82;98184.72;5025703;28;20042;-62
2021/07/07 03:23:19;;;;;;;6.35;4.03;;;;;;;21.73;72.06;98186.78;5017388;28;20109;-62
2021/07/07 03:25:46;;;;;;;6.30;3.95;;;;;;;21.60;72.77;98188.59;5019430;28;20025;-63
2021/07/07 03:28:12;;;;;;;6.05;4.20;;;;;;;21.49;73.10;98190.16;5018011;28;20245;-63
2021/07/07 03:30:37;;;;;;;7.88;4.45;;;;;;;21.13;73.45;98164.59;5040677;28;20456;-63
2021/07/07 03:33:03;;;;;;;6.55;4.25;;;;;;;21.29;73.23;98189.63;5029501;28;20033;-63
2021/07/07 03:35:28;;;;;;;6.18;4.10;;;;;;;21.36;73.25;98202.75;5023252;28;20064;-63
2021/07/07 03:37:55;;;;;;;7.38;4.50;;;;;;;21.09;73.54;98158.97;5015013;28;20017;-63
2021/07/07 03:40:21;;;;;;;6.47;4.18;;;;;;;21.43;73.41;98198.16;5019802;28;20641;-63
2021/07/07 03:42:47;;;;;;;7.78;4.50;;;;;;;21.38;73.66;98198.84;5022014;28;20035;-62
2021/07/07 03:45:15;;;;;;;8.82;4.45;;;;;;;21.53;73.44;98202.94;5014558;28;20022;-62
2021/07/07 03:47:40;;;;;;;9.00;4.65;;;;;;;21.59;73.36;98202.84;5039149;28;20333;-63
2021/07/07 03:50:07;;;;;;;7.80;4.55;;;;;;;21.68;73.02;98205.97;5014436;28;20026;-62
2021/07/07 03:52:33;;;;;;;10.57;4.70;;;;;;;21.61;72.57;98192.03;5039199;28;20369;-63
2021/07/07 03:54:59;;;;;;;9.15;4.65;;;;;;;21.53;72.75;98166.72;5023327;28;20040;-62
2021/07/07 03:57:24;;;;;;;6.75;4.32;;;;;;;21.62;72.22;98165.38;5022874;28;20061;-63
2021/07/07 03:59:50;;;;;;;6.55;4.55;;;;;;;21.87;72.29;98206.72;5017492;28;20522;-62
2021/07/07 04:02:15;;;;;;;7.82;4.43;;;;;;;21.93;71.87;98200.50;5015262;28;20034;-63
2021/07/07 04:04:42;;;;;;;6.70;4.55;;;;;;;21.97;71.82;98220.19;5034757;28;20017;-62
2021/07/07 04:07:08;;;;;;;6.80;3.83;;;;;;;21.71;71.99;98186.22;5025073;28;20261;-62
2021/07/07 04:09:33;;;;;;;6.38;4.30;;;;;;;21.91;72.17;98213.16;5028038;28;20040;-63
2021/07/07 04:11:59;;;;;;;9.25;4.32;;;;;;;21.75;72.18;98190.00;5017334;28;20028;-63
2021/07/07 04:14:25;;;;;;;9.20;4.50;;;;;;;21.78;72.33;98200.94;5022501;28;20445;-62
2021/07/07 04:16:52;;;;;;;6.93;4.35;;;;;;;21.66;73.03;98202.75;5023637;28;20048;-62
2021/07/07 04:19:18;;;;;;;7.65;4.72;;;;;;;21.80;72.73;98212.09;5032382;28;20388;-62
2021/07/07 04:21:45;;;;;;;9.45;4.50;;;;;;;21.73;72.76;98211.41;5008474;28;20021;-63
2021/07/07 04:24:10;;;;;;;7.22;4.45;;;;;;;21.76;72.66;98202.19;5022319;28;20025;-62
2021/07/07 04:26:36;;;;;;;6.32;4.47;;;;;;;21.56;72.53;98165.44;5019145;28;20535;-62
2021/07/07 04:29:01;;;;;;;6.38;4.43;;;;;;;21.87;72.36;98218.09;5020305;28;20033;-62
2021/07/07 04:31:27;;;;;;;7.63;4.40;;;;;;;21.78;72.16;98187.72;5019961;28;20435;-62
2021/07/07 04:33:53;;;;;;;7.47;4.90;;;;;;;21.79;72.19;98183.22;5020510;28;20025;-62
2021/07/07 04:36:18;;;;;;;7.22;4.53;;;;;;;21.91;72.46;98213.16;5018526;28;20036;-63
2021/07/07 04:38:44;;;;;;;7.07;5.20;;;;;;;21.79;72.73;98220.25;5017954;28;20025;-62
2021/07/07 04:41:09;;;;;;;7.72;5.18;;;;;;;21.76;72.50;98210.97;5021576;28;20021;-62
2021/07/07 04:43:34;;;;;;;7.93;4.63;;;;;;;21.60;72.69;98185.94;5015704;28;20104;-62
2021/07/07 04:46:00;;;;;;;7.93;4.75;;;;;;;21.75;72.44;98208.53;5019360;28;20029;-62
2021/07/07 04:48:25;;;;;;;7.53;4.38;;;;;;;21.96;71.88;98226.53;5016571;28;20100;-63
2021/07/07 04:50:50;;;;;;;6.25;3.95;;;;;;;22.10;71.12;98235.03;5019597;28;20022;-62
2021/07/07 04:53:16;;;;;;;8.32;4.30;;;;;;;22.13;71.35;98242.53;5019992;28;20491;-62
2021/07/07 04:55:41;;;;;;;6.40;4.20;;;;;;;22.23;70.90;98241.97;5025177;28;20030;-63
2021/07/07 04:58:08;;;;;;;8.32;4.50;;;;;;;21.85;70.51;98169.09;5015380;28;20096;-62
2021/07/07 05:00:34;;;;;;;7.63;4.50;;;;;;;22.24;70.54;98233.00;5037324;28;20476;-62
2021/07/07 05:02:59;;;;;;;8.73;4.28;;;;;;;22.37;70.44;98234.66;5024255;28;20068;-63
2021/07/07 05:05:25;;;;;;;9.10;4.55;;;;;;;22.13;71.15;98194.88;5021837;28;20104;-63
2021/07/07 05:07:50;;;;;;;6.80;4.85;;;;;;;22.18;70.72;98216.19;5021881;28;20105;-62
2021/07/07 05:10:16;;;;;;;8.52;5.25;;;;;;;22.23;70.87;98226.06;5020485;28;20706;-63
2021/07/07 05:12:42;;;;;;;8.93;5.00;;;;;;;22.30;70.86;98221.50;5032206;28;20048;-62
2021/07/07 05:15:08;;;;;;;8.63;5.15;;;;;;;22.30;70.67;98220.72;5020932;28;20126;-62
2021/07/07 05:17:34;;;;;;;10.00;4.95;;;;;;;;;;5017942;28;20582;-63
2021/07/07 05:19:59;;;;;;;6.70;4.53;;;;;;;22.06;71.32;98210.06;5015378;28;20101;-62
2021/07/07 05:22:26;;;;;;;6.63;4.72;;;;;;;22.30;70.79;98241.91;5036411;28;20030;-62
2021/07/07 05:24:51;;;;;;;8.00;5.25;;;;;;;22.06;72.32;98245.28;5031153;28;20018;-62
2021/07/07 05:27:17;;;;;;;7.82;4.70;;;;;;;21.97;72.78;98251.94;5029133;28;20334;-62
2021/07/07 05:29:45;;;;;;;8.93;4.75;;;;;;;21.68;73.16;98216.56;5017235;28;20116;-62
2021/07/07 05:32:11;;;;;;;7.97;5.10;;;;;;;21.73;73.68;98227.28;5019769;28;20079;-62
2021/07/07 05:34:38;;;;;;;8.10;4.70;;;;;;;21.87;74.48;98252.50;5019919;28;20025;-63
2021/07/07 05:37:04;;;;;;;7.82;5.07;;;;;;;21.67;74.65;98214.97;5016354;28;20368;-62
2021/07/07 05:39:29;;;;;;;9.52;5.18;;;;;;;21.83;74.84;98243.41;5013205;28;20025;-62
2021/07/07 05:41:55;;;;;;;8.98;5.20;;;;;;;21.65;74.57;98219.69;5020496;28;20036;-62
2021/07/07 05:44:21;;;;;;;9.00;5.18;;;;;;;21.81;74.83;98250.78;5023416;28;20025;-62
2021/07/07 05:46:46;;;;;;;8.60;4.88;;;;;;;21.89;75.01;98249.63;5020426;28;20036;-62
2021/07/07 05:49:12;;;;;;;8.98;5.32;;;;;;;21.69;74.29;98216.34;5021687;28;20708;-63
2021/07/07 05:51:37;;;;;;;8.00;4.85;;;;;;;21.94;73.96;98252.41;5020218;28;20026;-62
2021/07/07 05:54:02;;;;;;;7.07;4.78;;;;;;;21.78;73.68;98216.03;5034887;28;20025;-63
2021/07/07 05:56:28;;;;;;;6.55;4.93;;;;;;;22.02;73.23;98257.38;5019288;28;20153;-63
2021/07/07 05:58:54;;;;;;;7.38;5.18;;;;;;;21.93;73.97;98269.31;5029908;28;20038;-62
2021/07/07 06:01:19;;;;;;;8.40;5.00;;;;;;;21.85;74.32;98251.13;5019935;28;20204;-62
2021/07/07 06:03:44;;;;;;;7.35;4.55;;;;;;;21.94;73.86;98254.25;5019745;28;20083;-62
2021/07/07 06:06:10;;;;;;;8.88;4.75;;;;;;;22.05;74.38;98256.94;5035009;28;20036;-62
2021/07/07 06:08:35;;;;;;;8.30;4.90;;;;;;;21.89;73.89;98221.31;5015317;28;20030;-62
2021/07/07 06:11:01;;;;;;;7.90;5.00;;;;;;;21.84;74.32;98215.91;5019108;28;20033;-62
2021/07/07 06:13:26;;;;;;;8.15;5.50;;;;;;;21.50;75.62;98186.50;5038045;28;20142;-62
2021/07/07 06:15:51;;;;;;;7.45;4.95;;;;;;;22.02;75.53;98257.38;5019874;28;20044;-62
2021/07/07 06:18:17;;;;;;;7.65;5.28;;;;;;;21.78;75.19;98221.31;5021118;28;20567;-62
2021/07/07 06:20:42;;;;;;;7.70;5.45;;;;;;;21.99;75.03;98255.16;5019100;28;20025;-62
2021/07/07 06:23:08;;;;;;;7.07;5.28;;;;;;;21.79;75.45;98242.22;5030766;28;20034;-62
2021/07/07 06:25:33;;;;;;;7.88;4.95;;;;;;;22.05;75.30;98277.28;5019301;28;20029;-62
2021/07/07 06:28:00;;;;;;;6.78;4.88;;;;;;;22.14;74.89;98283.88;5033935;28;20075;-62
2021/07/07 06:30:27;;;;;;;8.43;4.97;;;;;;;22.20;74.76;98290.09;5012804;28;20036;-61
2021/07/07 06:32:54;;;;;;;7.15;5.20;;;;;;;22.20;75.02;98296.19;5004630;28;20025;-62
2021/07/07 06:35:19;;;;;;;8.90;5.30;;;;;;;22.25;74.49;98295.50;5020249;28;20032;-62
2021/07/07 06:37:46;;;;;;;8.27;5.53;;;;;;;22.15;74.66;98297.91;5020161;28;20029;-62
2021/07/07 06:40:12;;;;;;;6.53;4.93;;;;;;;21.95;74.27;98256.66;5015477;28;20137;-63
2021/07/07 06:42:38;;;;;;;8.13;4.88;;;;;;;22.23;74.70;98297.56;5008567;28;20030;-62
2021/07/07 06:45:05;;;;;;;8.32;5.25;;;;;;;22.16;75.06;98294.22;5015646;28;20029;-61
2021/07/07 06:47:31;;;;;;;7.50;5.18;;;;;;;22.12;75.25;98285.13;5019616;28;20034;-62
2021/07/07 06:49:56;;;;;;;14.18;6.50;;;;;;;22.20;75.29;98292.75;5013243;28;20040;-62
2021/07/07 06:52:22;;;;;;;6.82;5.15;;;;;;;22.28;74.57;98300.38;5018324;28;20026;-61
2021/07/07 06:54:48;;;;;;;8.57;5.50;;;;;;;22.04;74.62;98271.19;5017562;28;20025;-61
2021/07/07 06:57:14;;;;;;;11.45;5.82;;;;;;;22.38;74.60;98295.34;5034286;28;20040;-62
2021/07/07 06:59:39;;;;;;;8.32;4.88;;;;;;;22.13;74.40;98279.59;5017870;28;20041;-62
2021/07/07 07:02:05;;;;;;;6.60;5.30;;;;;;;22.32;74.40;98311.31;5023603;28;20030;-62
2021/07/07 07:04:31;;;;;;;8.80;6.45;;;;;;;22.17;74.58;98278.13;5018278;28;20026;-63
2021/07/07 07:06:57;;;;;;;8.05;5.78;;;;;;;22.31;74.12;98305.22;5015945;28;20800;-62
2021/07/07 07:09:23;;;;;;;8.95;5.93;;;;;;;22.42;73.79;98316.88;5018416;28;20079;-62
2021/07/07 07:11:49;;;;;;;11.68;5.75;;;;;;;22.60;73.85;98318.63;5035579;28;20034;-62
2021/07/07 07:14:14;;;;;;;9.30;5.47;;;;;;;22.38;73.35;98295.34;5020218;28;20026;-61
2021/07/07 07:16:41;;;;;;;10.70;5.60;;;;;;;22.78;73.10;98325.63;5018771;28;20021;-61
2021/07/07 07:19:08;;;;;;;19.98;9.18;;;;;;;22.87;72.87;98318.94;5035991;28;20041;-61
2021/07/07 07:21:34;;;;;;;10.82;5.60;;;;;;;22.75;72.72;98292.47;5031827;28;20132;-62
2021/07/07 07:23:59;;;;;;;9.23;5.78;;;;;;;22.87;72.64;98326.91;5026945;28;20026;-62
2021/07/07 07:26:27;;;;;;;8.45;4.57;;;;;;;22.74;72.82;98301.44;5024890;28;20527;-61
2021/07/07 07:28:54;;;;;;;7.00;4.38;;;;;;;22.77;72.62;98324.84;5020052;28;20040;-62
2021/07/07 07:31:19;;;;;;;8.48;4.93;;;;;;;22.72;72.72;98321.28;5011839;28;20018;-61
2021/07/07 07:33:44;;;;;;;8.23;5.22;;;;;;;22.94;72.22;98321.50;5021624;28;20494;-62
2021/07/07 07:36:10;;;;;;;8.73;5.38;;;;;;;22.93;71.62;98318.03;5018785;28;20022;-62
2021/07/07 07:38:44;;;;;;;8.48;5.10;;;;;;;22.86;71.66;98276.78;5032836;28;20915;-61
2021/07/07 07:41:10;;;;;;;12.77;6.25;;;;;;;23.13;71.36;98306.28;5028670;28;20017;-62
2021/07/07 07:43:36;;;;;;;8.85;5.25;;;;;;;23.04;71.43;98300.53;5028534;28;20487;-62
2021/07/07 07:46:02;;;;;;;8.07;5.13;;;;;;;23.20;70.78;98306.94;5019752;28;20025;-62
2021/07/07 07:48:28;;;;;;;13.23;6.50;;;;;;;23.32;71.37;98314.88;5012698;28;20458;-62
2021/07/07 07:50:54;;;;;;;6.93;5.00;;;;;;;23.50;70.27;98309.41;5003594;28;20456;-62
2021/07/07 07:53:19;;;;;;;8.20;5.13;;;;;;;23.44;70.05;98310.38;5024127;28;20025;-62
2021/07/07 07:55:45;;;;;;;10.23;5.30;;;;;;;23.41;68.70;98318.78;5037114;28;20060;-61
2021/07/07 07:58:12;;;;;;;7.07;4.88;;;;;;;23.54;67.35;98309.75;5013256;28;20033;-62
2021/07/07 08:00:38;;;;;;;7.45;4.95;;;;;;;23.46;65.74;98297.66;5011898;28;20108;-62
2021/07/07 08:03:03;;;;;;;9.88;4.18;;;;;;;23.81;60.92;98335.75;5019574;28;20411;-62
2021/07/07 08:05:29;;;;;;;11.80;5.68;;;;;;;23.78;67.45;98331.69;5038885;28;20032;-61
2021/07/07 08:08:01;;;;;;;10.32;4.63;;;;;;;23.73;63.67;98344.88;5016237;28;20060;-62
2021/07/07 08:10:26;;;;;;;8.95;4.20;;;;;;;23.74;63.61;98341.97;5020891;28;20021;-62
2021/07/07 08:12:52;;;;;;;7.13;4.38;;;;;;;23.75;63.99;98334.84;5021499;28;20033;-61
2021/07/07 08:15:18;;;;;;;7.07;4.80;;;;;;;23.81;63.93;98344.53;5014774;28;20080;-62
2021/07/07 08:17:45;;;;;;;8.63;4.10;;;;;;;23.85;65.10;98339.56;5021534;28;20022;-62
2021/07/07 08:20:11;;;;;;;6.68;4.90;;;;;;;23.92;67.54;98334.91;5037434;28;20049;-62
2021/07/07 08:22:37;;;;;;;7.90;4.93;;;;;;;23.63;67.82;98296.91;5017032;28;20820;-61
2021/07/07 08:25:04;;;;;;;7.75;4.60;;;;;;;23.53;68.38;98308.94;5020753;28;20037;-62
2021/07/07 08:27:30;;;;;;;6.38;4.70;;;;;;;23.66;66.50;98326.44;5018621;28;20037;-62
2021/07/07 08:29:55;;;;;;;7.03;4.53;;;;;;;23.77;63.53;98330.91;5035246;28;20037;-62
2021/07/07 08:32:21;;;;;;;6.90;4.50;;;;;;;23.75;63.96;98327.69;5019884;28;20025;-61
2021/07/07 08:34:46;;;;;;;8.23;4.78;;;;;;;23.80;65.93;98324.31;5017205;28;20510;-62
2021/07/07 08:37:13;;;;;;;8.00;4.85;;;;;;;24.11;64.10;98324.88;5023266;28;20044;-62
2021/07/07 08:39:39;;;;;;;6.82;4.40;;;;;;;24.77;62.66;98317.19;5019774;28;20088;-61
2021/07/07 08:42:04;;;;;;;6.68;4.50;;;;;;;25.22;60.19;98320.69;5021900;28;20464;-62
2021/07/07 08:44:30;;;;;;;7.45;4.20;;;;;;;25.88;57.58;98310.00;5019414;28;20687;-61
2021/07/07 08:46:55;;;;;;;6.50;4.38;;;;;;;26.01;56.23;98306.97;5024841;28;20109;-61
2021/07/07 08:49:21;;;;;;;6.93;4.43;;;;;;;26.34;54.25;98307.78;5038796;28;20067;-61
2021/07/07 08:51:47;;;;;;;6.20;3.80;;;;;;;26.22;52.85;98313.28;5038630;28;20044;-62
2021/07/07 08:54:12;;;;;;;5.82;4.03;;;;;;;26.07;50.19;98310.50;5021754;28;20022;-62
2021/07/07 08:56:42;;;;;;;5.57;4.05;;;;;;;25.97;49.10;98316.50;5020521;28;20511;-62
2021/07/07 08:59:09;;;;;;;6.50;4.07;;;;;;;25.32;50.27;98286.28;5024314;28;20056;-62
2021/07/07 09:02:09;;;;;;;6.35;4.47;;;;;;;25.65;51.61;98322.56;5003924;28;20029;-62
2021/07/07 09:04:45;;;;;;;8.05;4.80;;;;;;;25.61;52.57;98316.13;5030850;28;20040;-61
2021/07/07 09:07:14;;;;;;;6.68;4.80;;;;;;;25.30;53.19;98323.75;5016434;28;20104;-62
2021/07/07 09:09:58;;;;;;;7.75;4.40;;;;;;;25.47;52.93;98301.59;4999131;28;20053;-62
2021/07/07 09:12:27;;;;;;;6.75;4.47;;;;;;;25.97;52.70;98329.81;5035442;28;20029;-62
2021/07/07 09:15:15;;;;;;;8.02;5.05;;;;;;;25.66;53.56;98334.81;5036280;28;20022;-62
2021/07/07 09:17:48;;;;;;;7.20;4.78;;;;;;;25.62;54.04;98336.38;5032068;28;20392;-61
2021/07/07 09:20:24;;;;;;;8.52;4.30;;;;;;;25.59;54.66;98302.28;5016935;28;20060;-63
2021/07/07 09:22:51;;;;;;;9.52;4.72;;;;;;;25.58;54.10;98305.97;5033999;28;20017;-61
2021/07/07 09:25:26;;;;;;;7.45;4.50;;;;;;;25.78;53.58;98325.91;5020245;28;20043;-62
2021/07/07 09:27:51;;;;;;;8.30;4.28;;;;;;;26.38;52.66;98329.41;5010711;28;20036;-62
2021/07/07 09:30:18;;;;;;;6.32;4.35;;;;;;;26.82;50.17;98313.19;5031223;28;20025;-62
2021/07/07 09:32:48;;;;;;;6.10;4.68;;;;;;;26.43;50.40;98324.91;5019336;28;20036;-62
2021/07/07 09:35:17;;;;;;;9.45;4.40;;;;;;;26.31;52.00;98332.28;5019535;28;20017;-62
2021/07/07 09:37:56;;;;;;;7.05;4.75;;;;;;;26.04;52.54;98329.63;5020720;28;20029;-62
2021/07/07 09:40:22;;;;;;;8.50;5.10;;;;;;;26.23;52.49;98333.53;5020795;28;20014;-62
2021/07/07 09:42:48;;;;;;;8.50;5.03;;;;;;;26.50;51.14;98330.00;5018331;28;20034;-61
2021/07/07 09:45:17;;;;;;;8.52;5.13;;;;;;;26.89;50.50;98324.44;5017372;28;20635;-62
2021/07/07 09:47:43;;;;;;;7.10;4.85;;;;;;;26.75;50.89;98321.41;5033119;28;20726;-62
2021/07/07 09:50:10;;;;;;;6.95;5.18;;;;;;;26.64;50.69;98322.41;5014199;28;20607;-62
2021/07/07 09:52:36;;;;;;;7.78;5.07;;;;;;;26.19;51.52;98316.44;5035083;28;20037;-62
2021/07/07 09:55:05;;;;;;;7.40;5.07;;;;;;;26.14;53.42;98312.94;5019470;28;20021;-62
2021/07/07 09:57:30;;;;;;;;;;;;;;;25.99;53.85;98318.91;5017995;28;20041;-62
2021/07/07 09:59:56;;;;;;;7.63;4.90;;;;;;;25.80;54.41;98321.13;5019683;28;19923;-61
2021/07/07 10:02:21;;;;;;;8.50;4.90;;;;;;;25.42;53.58;98339.59;5032903;28;20065;-62
2021/07/07 10:04:46;;;;;;;7.78;5.00;;;;;;;25.55;54.26;98333.09;5022959;28;20030;-62
2021/07/07 10:07:13;;;;;;;7.00;5.30;;;;;;;25.87;52.87;98338.50;5017266;28;20117;-62
2021/07/07 10:09:45;;;;;;;6.68;4.93;;;;;;;25.73;53.28;98309.84;5016163;28;20049;-62
2021/07/07 10:12:10;;;;;;;7.28;4.75;;;;;;;26.15;52.13;98331.31;5036336;28;20380;-62
2021/07/07 10:14:36;;;;;;;6.95;5.03;;;;;;;26.28;53.95;98341.59;5017474;28;20056;-62
2021/07/07 10:17:02;;;;;;;8.80;5.10;;;;;;;26.15;53.63;98338.53;5024281;28;20044;-62
2021/07/07 10:19:27;;;;;;;8.95;5.35;;;;;;;25.59;54.47;98312.09;5018418;28;20030;-61
2021/07/07 10:21:55;;;;;;;7.85;5.43;;;;;;;25.98;55.81;98330.66;5034852;28;20731;-62
2021/07/07 10:24:23;;;;;;;7.60;5.05;;;;;;;25.84;55.59;98300.91;5036742;28;20017;-62
2021/07/07 10:26:51;;;;;;;8.40;5.60;;;;;;;26.05;53.75;98329.38;5018708;28;20100;-62
2021/07/07 10:29:17;;;;;;;9.57;5.75;;;;;;;25.68;54.69;98335.38;5021995;28;20059;-61
2021/07/07 10:31:48;;;;;;;8.85;5.82;;;;;;;25.87;55.35;98333.16;5030269;28;20033;-61
2021/07/07 10:34:14;;;;;;;7.75;5.20;;;;;;;25.97;55.05;98327.16;5014349;28;20537;-62
2021/07/07 10:36:40;;;;;;;10.20;5.90;;;;;;;25.79;55.74;98335.47;5017173;28;20037;-62
2021/07/07 10:39:07;;;;;;;9.48;6.13;;;;;;;25.72;54.72;98338.34;5018685;28;20056;-61
2021/07/07 10:41:42;;;;;;;8.40;6.30;;;;;;;25.81;55.12;98326.19;5011150;28;20036;-62
2021/07/07 10:44:31;;;;;;;8.77;6.13;;;;;;;26.00;54.54;98324.00;5017491;28;20033;-63
2021/07/07 10:47:10;;;;;;;;;;;;;;;26.27;53.96;98323.19;5019471;28;20037;-62
2021/07/07 10:49:42;;;;;;;9.90;5.65;;;;;;;26.35;53.74;98303.25;5017997;28;19916;-62
2021/07/07 10:52:11;;;;;;;10.10;5.97;;;;;;;26.42;53.97;98317.97;5019419;28;20029;-62
2021/07/07 10:54:38;;;;;;;10.35;6.43;;;;;;;26.46;52.62;98313.72;5019113;28;20033;-62
2021/07/07 10:57:06;;;;;;;10.30;6.15;;;;;;;26.61;52.74;98317.59;5034406;28;20030;-61
2021/07/07 10:59:37;;;;;;;9.23;5.85;;;;;;;26.45;54.31;98309.47;5028162;28;20568;-62
2021/07/07 11:02:06;;;;;;;10.32;6.05;;;;;;;26.73;56.05;98312.88;5016343;28;20029;-62
2021/07/07 11:04:45;;;;;;;8.23;6.35;;;;;;;26.46;53.99;98303.06;5017715;28;20029;-62
2021/07/07 11:07:32;;;;;;;8.15;5.70;;;;;;;26.69;53.67;98310.97;5019490;28;20014;-62
2021/07/07 11:10:17;;;;;;;7.85;5.28;;;;;;;26.68;51.84;98277.38;5019902;28;20034;-62
2021/07/07 11:12:43;;;;;;;7.20;5.43;;;;;;;27.02;50.51;98296.50;5029144;28;20029;-61
2021/07/07 11:15:25;;;;;;;8.07;4.77;;;;;;;27.33;46.38;98286.00;5019799;28;20025;-61
2021/07/07 11:17:53;;;;;;;7.00;5.10;;;;;;;27.58;46.10;98290.56;5013944;28;21001;-62
2021/07/07 11:20:27;;;;;;;6.88;4.93;;;;;;;27.60;44.97;98259.09;5019568;28;20025;-62
2021/07/07 11:23:06;;;;;;;6.32;4.95;;;;;;;28.02;44.10;98294.69;5019117;28;20061;-62
2021/07/07 11:25:34;;;;;;;8.80;5.07;;;;;;;28.10;43.76;98294.16;5020502;28;20141;-62
2021/07/07 11:28:01;;;;;;;9.68;5.63;;;;;;;28.16;43.81;98293.88;5020320;28;20080;-62
2021/07/07 11:30:28;;;;;;;7.75;5.30;;;;;;;27.86;43.20;98273.28;5037404;28;20033;-62
2021/07/07 11:32:57;;;;;;;9.35;5.30;;;;;;;27.86;43.69;98299.19;5024173;28;20029;-62